createdAt,value
2022-09-10T00:01:55.209Z,58.48
2022-09-10T00:04:22.711Z,58.85
2022-09-10T00:06:50.822Z,58.92
2022-09-10T00:09:18.040Z,59.02
2022-09-10T00:11:46.468Z,58.82
2022-09-10T00:14:15.480Z,58.84
2022-09-10T00:16:43.009Z,58.59
2022-09-10T00:19:10.547Z,58.47
2022-09-10T00:21:37.896Z,58.14
2022-09-10T00:24:05.292Z,58.07
2022-09-10T00:26:38.320Z,57.87
2022-09-10T00:29:06.671Z,57.51
2022-09-10T00:31:34.736Z,57.02
2022-09-10T00:34:02.369Z,57.45
2022-09-10T00:36:32.836Z,56.90
2022-09-10T00:39:04.777Z,56.49
2022-09-10T00:41:33.566Z,56.80
2022-09-10T00:44:02.556Z,56.24
2022-09-10T00:46:35.745Z,56.36
2022-09-10T00:49:05.236Z,56.56
2022-09-10T00:51:33.738Z,56.79
2022-09-10T00:54:01.542Z,56.91
2022-09-10T00:56:29.019Z,56.87
2022-09-10T00:58:56.336Z,56.81
2022-09-10T01:01:23.575Z,56.87
2022-09-10T01:03:51.685Z,57.03
2022-09-10T01:06:18.895Z,57.12
2022-09-10T01:08:46.129Z,56.84
2022-09-10T01:11:24.860Z,56.68
2022-09-10T01:14:00.479Z,56.91
2022-09-10T01:16:44.402Z,56.56
2022-09-10T01:19:24.461Z,56.08
2022-09-10T01:22:10.781Z,55.76
2022-09-10T01:24:46.843Z,55.98
2022-09-10T01:27:50.518Z,56.68
2022-09-10T01:30:19.272Z,56.72
2022-09-10T01:32:59.185Z,56.33
2022-09-10T01:35:30.327Z,55.87
2022-09-10T01:37:59.450Z,55.50
2022-09-10T01:40:30.055Z,56.06
2022-09-10T01:43:00.775Z,55.70
2022-09-10T01:45:28.954Z,55.22
2022-09-10T01:47:59.272Z,54.66
2022-09-10T01:50:41.968Z,55.10
2022-09-10T01:53:09.834Z,54.59
2022-09-10T01:55:56.610Z,54.63
2022-09-10T01:58:33.638Z,54.51
2022-09-10T02:01:04.932Z,54.85
2022-09-10T02:03:33.143Z,55.95
2022-09-10T02:06:00.565Z,56.45
2022-09-10T02:08:31.084Z,56.20
2022-09-10T02:11:00.699Z,55.67
2022-09-10T02:13:28.740Z,56.89
2022-09-10T02:15:56.739Z,56.71
2022-09-10T02:18:24.262Z,56.05
2022-09-10T02:20:52.835Z,56.09
2022-09-10T02:23:21.943Z,56.36
2022-09-10T02:25:51.736Z,56.39
2022-09-10T02:28:21.813Z,56.86
2022-09-10T02:30:50.144Z,56.26
2022-09-10T02:33:18.420Z,56.12
2022-09-10T02:35:47.763Z,56.89
2022-09-10T02:38:16.457Z,57.34
2022-09-10T02:40:43.793Z,56.95
2022-09-10T02:43:11.030Z,58.29
2022-09-10T02:45:39.147Z,57.26
2022-09-10T02:48:06.674Z,56.11
2022-09-10T02:50:34.150Z,55.25
2022-09-10T02:53:02.933Z,55.26
2022-09-10T02:55:31.467Z,56.09
2022-09-10T02:57:58.863Z,57.25
2022-09-10T03:00:26.455Z,54.93
2022-09-10T03:02:58.657Z,55.68
2022-09-10T03:05:30.029Z,54.72
2022-09-10T03:07:57.788Z,53.97
2022-09-10T03:10:25.115Z,54.51
2022-09-10T03:12:53.819Z,54.84
2022-09-10T03:15:21.085Z,54.81
2022-09-10T03:17:48.371Z,54.35
2022-09-10T03:20:15.844Z,56.06
2022-09-10T03:22:43.091Z,54.19
2022-09-10T03:25:11.714Z,55.29
2022-09-10T03:27:39.403Z,55.38
2022-09-10T03:30:07.407Z,56.84
2022-09-10T03:32:35.082Z,56.74
2022-09-10T03:35:02.658Z,56.64
2022-09-10T03:37:31.315Z,55.19
2022-09-10T03:39:58.907Z,56.23
2022-09-10T03:42:27.147Z,55.82
2022-09-10T03:44:55.633Z,55.25
2022-09-10T03:47:22.909Z,55.96
2022-09-10T03:49:50.933Z,54.71
2022-09-10T03:52:18.556Z,54.59
2022-09-10T03:54:45.861Z,55.35
2022-09-10T03:57:13.438Z,55.19
2022-09-10T03:59:41.284Z,53.56
2022-09-10T04:02:10.140Z,53.16
2022-09-10T04:04:37.673Z,54.77
2022-09-10T04:07:05.103Z,54.21
2022-09-10T04:09:34.094Z,53.70
2022-09-10T04:12:02.913Z,55.76
2022-09-10T04:14:31.142Z,54.40
2022-09-10T04:16:58.930Z,55.01
2022-09-10T04:19:28.024Z,53.83
2022-09-10T04:21:55.355Z,54.11
2022-09-10T04:24:23.214Z,53.83
2022-09-10T04:26:50.921Z,53.36
2022-09-10T04:29:19.110Z,52.90
2022-09-10T04:31:46.851Z,52.81
2022-09-10T04:34:15.667Z,53.39
2022-09-10T04:36:43.369Z,53.83
2022-09-10T04:39:10.725Z,53.10
2022-09-10T04:41:38.916Z,53.86
2022-09-10T04:44:07.229Z,54.43
2022-09-10T04:46:34.992Z,53.51
2022-09-10T04:49:03.386Z,54.60
2022-09-10T04:51:31.776Z,53.86
2022-09-10T04:53:59.461Z,54.05
2022-09-10T04:56:27.593Z,53.72
2022-09-10T04:58:54.870Z,53.45
2022-09-10T05:01:22.142Z,52.88
2022-09-10T05:03:50.175Z,54.33
2022-09-10T05:06:20.345Z,53.86
2022-09-10T05:08:48.115Z,54.49
2022-09-10T05:11:15.580Z,54.71
2022-09-10T05:13:43.544Z,54.17
2022-09-10T05:16:11.854Z,54.21
2022-09-10T05:18:39.524Z,53.42
2022-09-10T05:21:08.413Z,55.88
2022-09-10T05:23:36.243Z,54.81
2022-09-10T05:26:03.727Z,54.74
2022-09-10T05:28:31.018Z,55.79
2022-09-10T05:30:58.336Z,54.44
2022-09-10T05:33:26.376Z,54.32
2022-09-10T05:35:53.706Z,54.24
2022-09-10T05:38:21.434Z,55.02
2022-09-10T05:40:49.533Z,55.65
2022-09-10T05:43:16.839Z,54.10
2022-09-10T05:45:44.286Z,54.73
2022-09-10T05:48:11.882Z,55.94
2022-09-10T05:50:40.574Z,55.00
2022-09-10T05:53:09.816Z,55.33
2022-09-10T05:55:37.747Z,55.55
2022-09-10T05:58:06.345Z,56.51
2022-09-10T06:00:36.454Z,57.40
2022-09-10T06:03:05.392Z,58.83
2022-09-10T06:05:33.621Z,56.74
2022-09-10T06:08:05.394Z,55.80
2022-09-10T06:10:36.526Z,56.15
2022-09-10T06:13:03.813Z,55.89
2022-09-10T06:15:31.049Z,55.39
2022-09-10T06:17:58.912Z,56.53
2022-09-10T06:20:26.765Z,55.54
2022-09-10T06:22:54.848Z,55.79
2022-09-10T06:25:22.917Z,56.53
2022-09-10T06:27:50.783Z,55.65
2022-09-10T06:30:20.710Z,57.20
2022-09-10T06:32:48.409Z,56.52
2022-09-10T06:35:16.055Z,57.00
2022-09-10T06:37:44.053Z,56.84
2022-09-10T06:40:12.184Z,55.95
2022-09-10T06:42:40.924Z,56.51
2022-09-10T06:45:08.385Z,57.39
2022-09-10T06:50:25.257Z,57.80
2022-09-10T06:52:54.550Z,56.91
2022-09-10T06:55:22.221Z,59.59
2022-09-10T06:57:50.753Z,59.62
2022-09-10T07:00:18.394Z,57.75
2022-09-10T07:02:46.070Z,58.16
2022-09-10T07:05:13.469Z,58.24
2022-09-10T07:07:41.826Z,59.04
2022-09-10T07:10:09.379Z,59.06
2022-09-10T07:12:36.768Z,60.56
2022-09-10T07:15:05.878Z,58.96
2022-09-10T07:17:34.931Z,58.35
2022-09-10T07:20:02.943Z,59.00
2022-09-10T07:22:32.291Z,59.09
2022-09-10T07:25:00.273Z,58.81
2022-09-10T07:27:27.720Z,58.66
2022-09-10T07:29:55.929Z,57.98
2022-09-10T07:32:23.663Z,57.84
2022-09-10T07:34:55.918Z,57.54
2022-09-10T07:37:25.817Z,58.94
2022-09-10T07:39:53.278Z,57.66
2022-09-10T07:42:21.127Z,58.28
2022-09-10T07:44:49.830Z,58.30
2022-09-10T07:47:18.750Z,57.10
2022-09-10T07:49:46.185Z,56.88
2022-09-10T07:52:13.863Z,57.76
2022-09-10T07:54:42.164Z,57.85
2022-09-10T07:57:10.791Z,57.89
2022-09-10T07:59:38.369Z,57.96
2022-09-10T08:02:06.492Z,57.33
2022-09-10T08:04:37.298Z,58.65
2022-09-10T08:07:04.728Z,59.17
2022-09-10T08:09:32.151Z,58.26
2022-09-10T08:11:59.856Z,61.33
2022-09-10T08:14:27.459Z,61.46
2022-09-10T08:16:55.889Z,61.45
2022-09-10T08:19:23.501Z,60.69
2022-09-10T08:21:51.573Z,59.22
2022-09-10T08:24:19.724Z,60.56
2022-09-10T08:26:47.735Z,58.22
2022-09-10T08:29:15.082Z,57.88
2022-09-10T08:31:42.474Z,58.49
2022-09-10T08:34:11.272Z,56.04
2022-09-10T08:36:39.864Z,57.21
2022-09-10T08:39:08.546Z,56.25
2022-09-10T08:41:38.945Z,56.16
2022-09-10T08:44:09.830Z,55.97
2022-09-10T08:46:45.229Z,54.27
2022-09-10T08:49:31.505Z,56.21
2022-09-10T08:52:01.296Z,55.92
2022-09-10T08:54:35.128Z,55.56
2022-09-10T08:57:03.714Z,55.51
2022-09-10T08:59:33.442Z,55.99
2022-09-10T09:02:47.390Z,55.16
2022-09-10T09:05:17.979Z,56.43
2022-09-10T09:07:47.092Z,54.50
2022-09-10T09:10:35.288Z,54.75
2022-09-10T09:13:08.761Z,53.96
2022-09-10T09:15:49.583Z,53.71
2022-09-10T09:18:32.893Z,54.04
2022-09-10T09:21:01.613Z,53.07
2022-09-10T09:24:11.684Z,53.40
2022-09-10T09:26:38.420Z,52.35
2022-09-10T09:29:17.449Z,52.21
2022-09-10T09:31:51.046Z,52.37
2022-09-10T09:34:24.356Z,50.84
2022-09-10T09:36:52.408Z,49.27
2022-09-10T09:39:24.936Z,49.79
2022-09-10T09:42:02.652Z,49.70
2022-09-10T09:44:31.898Z,48.51
2022-09-10T09:46:59.544Z,49.26
2022-09-10T09:49:27.508Z,48.57
2022-09-10T09:51:55.375Z,48.72
2022-09-10T09:55:10.106Z,50.37
2022-09-10T09:57:15.275Z,47.37
2022-09-10T09:59:42.805Z,48.86
2022-09-10T10:02:11.451Z,47.46
2022-09-10T10:04:42.233Z,46.07
2022-09-10T10:07:10.205Z,46.51
2022-09-10T10:09:39.671Z,46.44
2022-09-10T10:12:08.899Z,47.34
2022-09-10T10:14:41.333Z,47.09
2022-09-10T10:17:41.384Z,45.34
2022-09-10T10:20:15.147Z,46.45
2022-09-10T10:22:43.551Z,46.00
2022-09-10T10:25:30.375Z,46.69
2022-09-10T10:27:57.866Z,47.06
2022-09-10T10:30:25.205Z,46.74
2022-09-10T10:32:58.851Z,45.72
2022-09-10T10:35:44.249Z,44.65
2022-09-10T10:38:14.650Z,45.21
2022-09-10T10:40:48.610Z,43.63
2022-09-10T10:43:26.070Z,44.33
2022-09-10T10:46:01.476Z,42.97
2022-09-10T10:48:28.720Z,43.23
2022-09-10T10:50:58.947Z,41.85
2022-09-10T10:53:26.789Z,40.61
2022-09-10T10:56:03.700Z,41.84
2022-09-10T10:58:37.713Z,41.51
2022-09-10T11:01:18.229Z,41.79
2022-09-10T11:03:51.383Z,40.84
2022-09-10T11:06:20.692Z,40.26
2022-09-10T11:08:50.425Z,40.65
2022-09-10T11:11:19.232Z,39.57
2022-09-10T11:13:49.110Z,39.97
2022-09-10T11:16:21.819Z,38.55
2022-09-10T11:19:12.162Z,37.43
2022-09-10T11:21:45.338Z,38.11
2022-09-10T11:24:17.095Z,37.93
2022-09-10T11:27:05.331Z,38.21
2022-09-10T11:29:35.478Z,39.11
2022-09-10T11:32:27.050Z,38.57
2022-09-10T11:34:58.736Z,38.95
2022-09-10T11:37:34.166Z,38.45
2022-09-10T11:40:05.593Z,39.25
2022-09-10T11:42:40.248Z,38.29
2022-09-10T11:45:13.511Z,38.13
2022-09-10T11:47:43.008Z,37.45
2022-09-10T11:50:19.313Z,37.25
2022-09-10T11:52:46.865Z,37.15
2022-09-10T11:55:14.875Z,36.20
2022-09-10T11:57:42.087Z,38.56
2022-09-10T12:00:11.774Z,36.72
2022-09-10T12:02:39.283Z,37.43
2022-09-10T12:05:26.541Z,36.75
2022-09-10T12:08:04.383Z,35.54
2022-09-10T12:10:37.400Z,36.65
2022-09-10T12:13:13.881Z,36.00
2022-09-10T12:15:41.259Z,36.77
2022-09-10T12:18:16.642Z,38.02
2022-09-10T12:20:49.034Z,37.57
2022-09-10T12:23:18.065Z,36.62
2022-09-10T12:25:45.463Z,36.98
2022-09-10T12:28:31.445Z,36.79
2022-09-10T12:31:00.280Z,36.04
2022-09-10T12:33:27.589Z,35.86
2022-09-10T12:35:54.824Z,36.30
2022-09-10T12:38:41.426Z,35.79
2022-09-10T12:41:11.099Z,36.41
2022-09-10T12:43:43.428Z,34.94
2022-09-10T12:46:10.774Z,36.84
2022-09-10T12:48:39.959Z,36.89
2022-09-10T12:51:13.727Z,38.16
2022-09-10T12:53:47.651Z,37.11
2022-09-10T12:56:47.829Z,37.99
2022-09-10T12:59:18.178Z,37.19
2022-09-10T13:01:46.453Z,37.74
2022-09-10T13:04:20.169Z,37.52
2022-09-10T13:06:47.950Z,38.49
2022-09-10T13:09:21.594Z,38.01
2022-09-10T13:11:51.506Z,37.41
2022-09-10T13:14:20.828Z,37.59
2022-09-10T13:16:48.192Z,38.15
2022-09-10T13:19:19.506Z,37.41
2022-09-10T13:21:48.145Z,38.01
2022-09-10T13:24:34.490Z,38.15
2022-09-10T13:27:13.805Z,37.33
2022-09-10T13:29:52.642Z,36.90
2022-09-10T13:32:23.667Z,38.17
2022-09-10T13:35:17.118Z,36.49
2022-09-10T13:38:04.679Z,36.27
2022-09-10T13:40:39.014Z,38.00
2022-09-10T13:43:16.427Z,37.99
2022-09-10T13:45:49.229Z,38.45
2022-09-10T13:48:19.611Z,38.14
2022-09-10T13:50:50.073Z,37.77
2022-09-10T13:53:17.593Z,36.15
2022-09-10T13:55:48.897Z,36.11
2022-09-10T13:58:17.192Z,35.39
2022-09-10T14:00:53.805Z,36.70
2022-09-10T14:03:25.928Z,36.03
2022-09-10T14:05:53.511Z,36.23
2022-09-10T14:08:27.342Z,36.97
2022-09-10T14:10:55.773Z,35.88
2022-09-10T14:13:25.596Z,36.10
2022-09-10T14:15:54.132Z,35.31
2022-09-10T14:18:21.538Z,35.41
2022-09-10T14:20:49.327Z,34.71
2022-09-10T14:23:16.661Z,35.09
2022-09-10T14:25:44.161Z,34.89
2022-09-10T14:28:12.594Z,34.44
2022-09-10T14:30:39.980Z,35.05
2022-09-10T14:33:42.896Z,35.26
2022-09-10T14:36:33.755Z,35.11
2022-09-10T14:39:16.925Z,34.58
2022-09-10T14:41:44.542Z,34.22
2022-09-10T14:44:14.134Z,34.37
2022-09-10T14:46:48.992Z,34.57
2022-09-10T14:49:17.362Z,34.16
2022-09-10T14:51:44.694Z,35.22
2022-09-10T14:54:12.920Z,34.52
2022-09-10T14:56:41.696Z,34.55
2022-09-10T14:59:12.283Z,34.12
2022-09-10T15:01:43.231Z,34.36
2022-09-10T15:04:15.756Z,33.26
2022-09-10T15:06:46.445Z,33.90
2022-09-10T15:09:14.871Z,33.50
2022-09-10T15:11:50.494Z,35.06
2022-09-10T15:14:18.030Z,34.06
2022-09-10T15:16:45.278Z,33.67
2022-09-10T15:19:17.506Z,34.39
2022-09-10T15:21:45.165Z,33.36
2022-09-10T15:24:14.140Z,32.63
2022-09-10T15:26:42.597Z,33.47
2022-09-10T15:29:10.428Z,33.04
2022-09-10T15:31:38.495Z,33.40
2022-09-10T15:34:06.590Z,33.22
2022-09-10T15:36:37.056Z,33.62
2022-09-10T15:39:04.765Z,33.93
2022-09-10T15:41:32.117Z,33.98
2022-09-10T15:43:59.706Z,33.93
2022-09-10T15:46:26.996Z,33.19
2022-09-10T15:48:55.629Z,33.14
2022-09-10T15:51:23.497Z,33.15
2022-09-10T15:53:51.622Z,32.71
2022-09-10T15:56:19.591Z,33.37
2022-09-10T15:58:51.486Z,33.54
2022-09-10T16:01:18.816Z,33.84
2022-09-10T16:03:50.715Z,33.81
2022-09-10T16:06:20.953Z,34.67
2022-09-10T16:08:52.915Z,34.24
2022-09-10T16:11:20.540Z,35.20
2022-09-10T16:13:47.779Z,34.64
2022-09-10T16:16:21.960Z,35.29
2022-09-10T16:18:51.669Z,36.34
2022-09-10T16:21:22.397Z,35.64
2022-09-10T16:23:50.350Z,35.73
2022-09-10T16:26:20.052Z,35.96
2022-09-10T16:28:54.542Z,36.41
2022-09-10T16:31:23.039Z,35.79
2022-09-10T16:33:54.680Z,36.05
2022-09-10T16:36:23.683Z,36.39
2022-09-10T16:38:52.843Z,37.53
2022-09-10T16:41:20.670Z,37.15
2022-09-10T16:43:47.909Z,38.01
2022-09-10T16:46:17.306Z,37.34
2022-09-10T16:48:44.800Z,36.87
2022-09-10T16:51:13.099Z,36.83
2022-09-10T16:53:40.938Z,36.77
2022-09-10T16:56:09.793Z,36.90
2022-09-10T16:58:38.788Z,38.25
2022-09-10T17:01:09.146Z,38.17
2022-09-10T17:03:40.110Z,37.57
2022-09-10T17:06:12.804Z,38.05
2022-09-10T17:08:40.394Z,37.86
2022-09-10T17:11:08.853Z,38.81
2022-09-10T17:13:36.297Z,38.61
2022-09-10T17:16:12.893Z,38.63
2022-09-10T17:18:43.113Z,38.31
2022-09-10T17:21:10.653Z,37.84
2022-09-10T17:23:38.110Z,38.23
2022-09-10T17:26:06.380Z,38.92
2022-09-10T17:28:35.890Z,38.91
2022-09-10T17:31:03.453Z,39.08
2022-09-10T17:33:31.047Z,38.19
2022-09-10T17:36:00.273Z,37.67
2022-09-10T17:38:28.156Z,37.77
2022-09-10T17:40:58.301Z,36.78
2022-09-10T17:43:27.473Z,36.16
2022-09-10T17:45:55.319Z,36.49
2022-09-10T17:48:26.373Z,36.56
2022-09-10T17:50:55.419Z,36.25
2022-09-10T17:53:24.127Z,36.38
2022-09-10T17:55:51.431Z,35.92
2022-09-10T17:58:18.685Z,36.17
2022-09-10T18:00:49.443Z,36.75
2022-09-10T18:03:18.136Z,37.18
2022-09-10T18:05:45.828Z,37.41
2022-09-10T18:08:13.326Z,37.50
2022-09-10T18:10:40.890Z,37.85
2022-09-10T18:13:08.245Z,38.15
2022-09-10T18:15:46.378Z,38.68
2022-09-10T18:18:15.565Z,37.66
2022-09-10T18:20:43.017Z,38.16
2022-09-10T18:23:10.412Z,38.90
2022-09-10T18:25:38.153Z,39.29
2022-09-10T18:28:06.124Z,39.50
2022-09-10T18:30:33.350Z,39.37
2022-09-10T18:33:01.064Z,39.40
2022-09-10T18:35:28.318Z,38.90
2022-09-10T18:37:56.990Z,38.99
2022-09-10T18:40:25.650Z,38.78
2022-09-10T18:42:52.876Z,38.34
2022-09-10T18:45:20.545Z,38.81
2022-09-10T18:47:48.082Z,38.71
2022-09-10T18:50:15.597Z,38.61
2022-09-10T18:52:43.129Z,38.37
2022-09-10T18:55:10.701Z,38.66
2022-09-10T18:57:37.951Z,38.78
2022-09-10T19:00:05.418Z,38.94
2022-09-10T19:02:33.105Z,39.37
2022-09-10T19:05:17.579Z,38.83
2022-09-10T19:07:46.721Z,38.85
2022-09-10T19:10:14.004Z,39.30
2022-09-10T19:12:41.329Z,39.74
2022-09-10T19:15:09.017Z,39.56
2022-09-10T19:17:36.735Z,39.50
2022-09-10T19:20:04.265Z,39.21
2022-09-10T19:22:31.791Z,39.34
2022-09-10T19:24:59.023Z,40.20
2022-09-10T19:27:26.303Z,40.15
2022-09-10T19:29:54.191Z,40.04
2022-09-10T19:32:21.665Z,40.41
2022-09-10T19:34:49.592Z,40.78
2022-09-10T19:37:17.327Z,41.13
2022-09-10T19:39:44.801Z,41.69
2022-09-10T19:42:13.162Z,41.62
2022-09-10T19:44:40.656Z,41.62
2022-09-10T19:47:07.886Z,41.74
2022-09-10T19:49:35.113Z,42.06
2022-09-10T19:52:04.256Z,42.27
2022-09-10T19:54:31.906Z,42.69
2022-09-10T19:56:59.148Z,42.29
2022-09-10T19:59:26.628Z,42.59
2022-09-10T20:01:53.942Z,42.94
2022-09-10T20:04:21.569Z,42.84
2022-09-10T20:06:50.377Z,43.05
2022-09-10T20:09:17.683Z,42.78
2022-09-10T20:11:45.357Z,42.74
2022-09-10T20:14:13.409Z,42.86
2022-09-10T20:16:42.505Z,42.99
2022-09-10T20:19:11.123Z,43.48
2022-09-10T20:21:38.447Z,43.67
2022-09-10T20:24:06.417Z,43.36
2022-09-10T20:26:34.906Z,43.81
2022-09-10T20:29:03.984Z,44.49
2022-09-10T20:31:32.490Z,43.50
2022-09-10T20:34:00.697Z,45.06
2022-09-10T20:36:28.462Z,45.34
2022-09-10T20:38:56.067Z,44.10
2022-09-10T20:41:24.115Z,44.29
2022-09-10T20:43:51.816Z,43.88
2022-09-10T20:46:19.763Z,43.88
2022-09-10T20:48:49.379Z,44.49
2022-09-10T20:51:20.533Z,44.40
2022-09-10T20:53:48.421Z,44.53
2022-09-10T20:56:19.067Z,44.08
2022-09-10T20:58:46.894Z,43.99
2022-09-10T21:01:16.572Z,43.86
2022-09-10T21:03:43.904Z,43.90
2022-09-10T21:06:11.699Z,44.31
2022-09-10T21:08:39.987Z,44.47
2022-09-10T21:11:08.411Z,44.73
2022-09-10T21:13:38.776Z,45.19
2022-09-10T21:16:07.706Z,44.76
2022-09-10T21:18:35.226Z,44.26
2022-09-10T21:21:12.366Z,44.49
2022-09-10T21:23:43.945Z,45.31
2022-09-10T21:26:11.790Z,45.03
2022-09-10T21:28:39.481Z,44.82
2022-09-10T21:31:08.343Z,44.57
2022-09-10T21:33:35.908Z,44.66
2022-09-10T21:36:06.365Z,44.63
2022-09-10T21:38:35.180Z,44.16
2022-09-10T21:41:03.731Z,44.50
2022-09-10T21:43:32.814Z,44.80
2022-09-10T21:46:01.443Z,44.78
2022-09-10T21:48:31.899Z,44.10
2022-09-10T21:51:04.958Z,44.74
2022-09-10T21:55:59.806Z,44.36
2022-09-10T21:58:27.955Z,44.27
2022-09-10T22:00:58.387Z,44.38
2022-09-10T22:03:29.142Z,44.60
2022-09-10T22:06:08.832Z,45.64
2022-09-10T22:08:36.590Z,45.49
2022-09-10T22:11:05.092Z,45.30
2022-09-10T22:13:33.072Z,45.62
2022-09-10T22:16:00.691Z,45.85
2022-09-10T22:18:27.948Z,46.08
2022-09-10T22:21:01.463Z,46.46
2022-09-10T22:23:33.258Z,45.57
2022-09-10T22:26:13.605Z,45.32
2022-09-10T22:28:41.350Z,45.41
2022-09-10T22:31:13.111Z,47.00
2022-09-10T22:33:41.548Z,47.25
2022-09-10T22:36:15.969Z,46.84
2022-09-10T22:38:43.543Z,47.67
2022-09-10T22:41:10.843Z,46.78
2022-09-10T22:43:38.608Z,46.37
2022-09-10T22:46:07.222Z,45.83
2022-09-10T22:48:35.277Z,46.47
2022-09-10T22:51:02.521Z,45.83
2022-09-10T22:53:30.034Z,45.86
2022-09-10T22:55:58.186Z,47.52
2022-09-10T22:58:26.391Z,46.95
2022-09-10T23:00:53.933Z,46.83
2022-09-10T23:03:21.667Z,46.19
2022-09-10T23:05:49.235Z,47.02
2022-09-10T23:08:17.076Z,47.05
2022-09-10T23:10:44.381Z,46.47
2022-09-10T23:13:11.671Z,46.30
2022-09-10T23:15:39.616Z,46.41
2022-09-10T23:18:06.845Z,46.79
2022-09-10T23:20:34.440Z,46.55
2022-09-10T23:23:01.924Z,46.97
2022-09-10T23:25:29.363Z,46.74
2022-09-10T23:27:56.617Z,47.28
2022-09-10T23:30:24.067Z,48.68
2022-09-10T23:32:51.517Z,47.35
2022-09-10T23:35:18.702Z,47.22
2022-09-10T23:37:46.311Z,47.04
2022-09-10T23:40:14.109Z,47.03
2022-09-10T23:42:41.340Z,46.39
2022-09-10T23:45:09.085Z,46.20
2022-09-10T23:47:36.723Z,46.34
2022-09-10T23:50:05.990Z,47.20
2022-09-10T23:52:33.751Z,46.63
2022-09-10T23:55:00.944Z,46.75
2022-09-10T23:57:28.193Z,46.64
2022-09-10T23:59:55.991Z,46.58
